createdAt,value
2022-12-09T00:00:15.316Z,100187.56
2022-12-09T00:02:17.305Z,100182.53
2022-12-09T00:04:19.645Z,100181.09
2022-12-09T00:06:26.701Z,100176.88
2022-12-09T00:08:28.568Z,100155.66
2022-12-09T00:10:30.309Z,100181.41
2022-12-09T00:12:32.203Z,100134.69
2022-12-09T00:14:34.127Z,100175.88
2022-12-09T00:16:35.970Z,100182.56
2022-12-09T00:18:38.215Z,100184.53
2022-12-09T00:20:40.178Z,100182.56
2022-12-09T00:22:42.312Z,100183.41
2022-12-09T00:24:44.246Z,100187.91
2022-12-09T00:26:46.159Z,100165.75
2022-12-09T00:28:49.459Z,100190.22
2022-12-09T00:30:51.427Z,100193.22
2022-12-09T00:32:53.566Z,100194.06
2022-12-09T00:34:55.237Z,100189.25
2022-12-09T00:36:57.091Z,100189.38
2022-12-09T00:38:59.405Z,100184.66
2022-12-09T00:41:01.432Z,100198.88
2022-12-09T00:43:03.307Z,100187.69
2022-12-09T00:45:05.764Z,100186.63
2022-12-09T00:47:07.569Z,100202.13
2022-12-09T00:49:10.980Z,100191.66
2022-12-09T00:51:18.554Z,100210.56
2022-12-09T00:53:21.029Z,100209.72
2022-12-09T00:55:23.022Z,100193.72
2022-12-09T00:57:25.275Z,100209.31
2022-12-09T00:59:27.051Z,100206.47
2022-12-09T01:01:29.372Z,100210.03
2022-12-09T01:03:31.373Z,100192.56
2022-12-09T01:05:36.843Z,100197.19
2022-12-09T01:07:39.017Z,100186.69
2022-12-09T01:09:40.869Z,100197.19
2022-12-09T01:11:42.886Z,100210.06
2022-12-09T01:13:45.166Z,100208.59
2022-12-09T01:15:47.098Z,100209.44
2022-12-09T01:17:49.004Z,100213.13
2022-12-09T01:19:50.870Z,100210.38
2022-12-09T01:21:52.534Z,100192.97
2022-12-09T01:23:54.326Z,100200.72
2022-12-09T01:25:56.519Z,100200.25
2022-12-09T01:27:58.631Z,100192.31
2022-12-09T01:30:00.820Z,100203.50
2022-12-09T01:32:02.808Z,100181.63
2022-12-09T01:34:04.757Z,100195.31
2022-12-09T01:36:09.310Z,100192.00
2022-12-09T01:38:11.342Z,100193.31
2022-12-09T01:40:16.092Z,100197.31
2022-12-09T01:42:23.639Z,100194.06
2022-12-09T01:44:27.209Z,100195.13
2022-12-09T01:46:29.223Z,100191.34
2022-12-09T01:48:35.114Z,100178.66
2022-12-09T01:50:39.471Z,100197.56
2022-12-09T01:52:41.492Z,100194.56
2022-12-09T01:54:45.936Z,100203.38
2022-12-09T01:56:48.765Z,100187.09
2022-12-09T01:58:53.765Z,100202.03
2022-12-09T02:00:56.382Z,100192.50
2022-12-09T02:03:00.536Z,100184.25
2022-12-09T02:05:03.413Z,100183.03
2022-12-09T02:07:09.998Z,100186.06
2022-12-09T02:09:12.117Z,100166.44
2022-12-09T02:11:20.367Z,100188.34
2022-12-09T02:14:03.998Z,100185.34
2022-12-09T02:16:13.031Z,100164.72
2022-12-09T02:18:35.621Z,100186.47
2022-12-09T02:21:01.209Z,100169.69
2022-12-09T02:23:18.333Z,100171.91
2022-12-09T02:25:39.475Z,100191.38
2022-12-09T02:27:49.144Z,100191.72
2022-12-09T02:30:05.628Z,100195.50
2022-12-09T02:32:14.519Z,100194.75
2022-12-09T02:34:21.071Z,100198.31
2022-12-09T02:36:27.886Z,100187.38
2022-12-09T02:38:33.003Z,100188.34
2022-12-09T02:41:14.012Z,100196.25
2022-12-09T02:43:19.711Z,100199.47
2022-12-09T02:45:24.997Z,100193.53
2022-12-09T02:47:30.922Z,100196.16
2022-12-09T02:49:35.021Z,100184.03
2022-12-09T02:51:38.569Z,100165.47
2022-12-09T02:53:41.448Z,100200.72
2022-12-09T02:55:46.395Z,100210.88
2022-12-09T02:57:51.190Z,100211.94
2022-12-09T02:59:53.085Z,100211.44
2022-12-09T03:02:04.090Z,100218.78
2022-12-09T03:04:07.731Z,100213.97
2022-12-09T03:06:14.435Z,100212.84
2022-12-09T03:08:47.585Z,100212.53
2022-12-09T03:11:01.219Z,100217.78
2022-12-09T03:13:10.636Z,100209.25
2022-12-09T03:15:14.852Z,100207.41
2022-12-09T03:17:22.313Z,100211.19
2022-12-09T03:19:46.231Z,100204.59
2022-12-09T03:21:50.750Z,100201.69
2022-12-09T03:23:57.017Z,100177.13
2022-12-09T03:26:00.461Z,100200.66
2022-12-09T03:28:05.346Z,100199.41
2022-12-09T03:30:10.153Z,100197.63
2022-12-09T03:32:14.668Z,100186.13
2022-12-09T03:34:20.626Z,100199.91
2022-12-09T03:36:26.594Z,100204.31
2022-12-09T03:38:36.720Z,100174.22
2022-12-09T03:40:40.012Z,100188.72
2022-12-09T03:42:51.974Z,100205.75
2022-12-09T03:44:58.067Z,100188.53
2022-12-09T03:47:00.227Z,100179.13
2022-12-09T03:49:02.243Z,100194.38
2022-12-09T03:51:46.780Z,100180.78
2022-12-09T03:54:22.245Z,100190.91
2022-12-09T03:56:35.674Z,100179.63
2022-12-09T03:58:41.220Z,100198.16
2022-12-09T04:00:43.840Z,100194.38
2022-12-09T04:02:46.252Z,100195.53
2022-12-09T04:04:48.324Z,100179.75
2022-12-09T04:06:52.985Z,100187.28
2022-12-09T04:08:59.463Z,100200.03
2022-12-09T04:11:03.955Z,100190.41
2022-12-09T04:13:06.126Z,100178.06
2022-12-09T04:15:14.520Z,100197.53
2022-12-09T04:17:16.406Z,100177.22
2022-12-09T04:19:18.391Z,100192.19
2022-12-09T04:21:20.248Z,100196.78
2022-12-09T04:23:22.197Z,100195.00
2022-12-09T04:25:24.385Z,100198.06
2022-12-09T04:27:26.114Z,100194.91
2022-12-09T04:29:28.170Z,100194.06
2022-12-09T04:31:30.767Z,100183.81
2022-12-09T04:33:32.539Z,100171.16
2022-12-09T04:35:34.229Z,100204.81
2022-12-09T04:37:36.612Z,100178.47
2022-12-09T04:39:38.792Z,100197.72
2022-12-09T04:41:40.604Z,100201.19
2022-12-09T04:43:42.701Z,100200.25
2022-12-09T04:45:44.899Z,100197.09
2022-12-09T04:47:46.799Z,100192.91
2022-12-09T04:49:49.113Z,100181.63
2022-12-09T04:51:51.011Z,100196.78
2022-12-09T04:53:52.747Z,100194.06
2022-12-09T04:56:02.178Z,100194.28
2022-12-09T04:58:03.955Z,100195.75
2022-12-09T05:00:07.591Z,100193.16
2022-12-09T05:02:09.902Z,100192.81
2022-12-09T05:04:12.144Z,100180.69
2022-12-09T05:06:14.812Z,100171.47
2022-12-09T05:08:17.772Z,100177.25
2022-12-09T05:10:20.176Z,100201.59
2022-12-09T05:12:22.083Z,100206.63
2022-12-09T05:14:24.176Z,100184.22
2022-12-09T05:16:26.381Z,100208.84
2022-12-09T05:18:29.268Z,100188.91
2022-12-09T05:20:31.734Z,100203.03
2022-12-09T05:22:33.627Z,100204.50
2022-12-09T05:24:35.889Z,100186.13
2022-12-09T05:26:38.427Z,100190.94
2022-12-09T05:28:40.581Z,100206.19
2022-12-09T05:30:43.050Z,100198.25
2022-12-09T05:32:45.497Z,100205.75
2022-12-09T05:34:47.474Z,100211.72
2022-12-09T05:36:49.702Z,100214.16
2022-12-09T05:38:52.001Z,100212.38
2022-12-09T05:40:54.208Z,100218.50
2022-12-09T05:42:56.189Z,100206.88
2022-12-09T05:44:58.114Z,100192.16
2022-12-09T05:47:00.253Z,100201.94
2022-12-09T05:49:02.256Z,100205.41
2022-12-09T05:51:11.746Z,100133.41
2022-12-09T05:53:13.973Z,100203.44
2022-12-09T05:55:15.991Z,100190.66
2022-12-09T05:57:17.862Z,100206.47
2022-12-09T05:59:19.600Z,100202.34
2022-12-09T06:01:22.909Z,100210.53
2022-12-09T06:03:25.385Z,100209.81
2022-12-09T06:05:27.496Z,100218.38
2022-12-09T06:07:29.609Z,100218.59
2022-12-09T06:09:32.284Z,100215.31
2022-12-09T06:11:34.215Z,100195.38
2022-12-09T06:13:36.131Z,100218.84
2022-12-09T06:15:38.547Z,100226.09
2022-12-09T06:17:41.088Z,100215.56
2022-12-09T06:19:43.106Z,100219.84
2022-12-09T06:21:45.530Z,100210.75
2022-12-09T06:23:48.165Z,100217.75
2022-12-09T06:25:49.858Z,100219.28
2022-12-09T06:27:52.623Z,100223.31
2022-12-09T06:29:54.705Z,100224.56
2022-12-09T06:31:56.899Z,100210.84
2022-12-09T06:33:59.877Z,100204.88
2022-12-09T06:36:03.461Z,100225.28
2022-12-09T06:38:05.336Z,100223.50
2022-12-09T06:40:07.922Z,100228.78
2022-12-09T06:42:10.149Z,100208.31
2022-12-09T06:44:15.798Z,100239.09
2022-12-09T06:46:23.746Z,100238.16
2022-12-09T06:48:25.938Z,100218.81
2022-12-09T06:50:28.184Z,100242.13
2022-12-09T06:52:30.601Z,100220.88
2022-12-09T06:54:32.320Z,100243.78
2022-12-09T06:56:34.580Z,100239.94
2022-12-09T06:58:36.831Z,100236.19
2022-12-09T07:00:38.597Z,100227.50
2022-12-09T07:02:41.103Z,100234.41
2022-12-09T07:04:43.829Z,100241.19
2022-12-09T07:06:46.367Z,100242.59
2022-12-09T07:08:48.711Z,100240.06
2022-12-09T07:10:56.201Z,100237.44
2022-12-09T07:12:59.334Z,100238.84
2022-12-09T07:15:01.362Z,100226.91
2022-12-09T07:17:03.875Z,100250.13
2022-12-09T07:19:06.987Z,100238.94
2022-12-09T07:21:14.530Z,100240.41
2022-12-09T07:23:16.644Z,100246.47
2022-12-09T07:25:18.671Z,100227.53
2022-12-09T07:27:20.643Z,100222.72
2022-12-09T07:29:22.907Z,100243.44
2022-12-09T07:31:27.504Z,100249.72
2022-12-09T07:33:30.400Z,100241.97
2022-12-09T07:35:33.019Z,100245.97
2022-12-09T07:37:34.903Z,100247.22
2022-12-09T07:39:36.829Z,100232.25
2022-12-09T07:41:38.804Z,100247.72
2022-12-09T07:43:40.527Z,100250.78
2022-12-09T07:45:42.612Z,100233.81
2022-12-09T07:47:45.285Z,100254.09
2022-12-09T07:49:47.582Z,100254.94
2022-12-09T07:51:49.587Z,100245.31
2022-12-09T07:53:51.855Z,100250.53
2022-12-09T07:55:54.357Z,100255.34
2022-12-09T07:57:56.473Z,100241.63
2022-12-09T07:59:58.684Z,100230.25
2022-12-09T08:02:05.672Z,100247.16
2022-12-09T08:04:08.688Z,100205.84
2022-12-09T08:06:17.256Z,100243.88
2022-12-09T08:08:19.320Z,100244.53
2022-12-09T08:10:22.048Z,100249.41
2022-12-09T08:12:24.852Z,100250.53
2022-12-09T08:14:26.562Z,100247.81
2022-12-09T08:16:28.582Z,100250.94
2022-12-09T08:18:31.121Z,100244.84
2022-12-09T08:20:33.497Z,100244.63
2022-12-09T08:22:35.689Z,100227.88
2022-12-09T08:24:38.347Z,100249.38
2022-12-09T08:26:40.530Z,100263.28
2022-12-09T08:28:42.854Z,100266.31
2022-12-09T08:30:45.263Z,100262.44
2022-12-09T08:32:47.697Z,100252.53
2022-12-09T08:34:49.690Z,100254.50
2022-12-09T08:36:53.748Z,100259.47
2022-12-09T08:39:01.314Z,100259.91
2022-12-09T08:41:14.172Z,100267.38
2022-12-09T08:43:16.563Z,100266.56
2022-12-09T08:45:18.752Z,100261.06
2022-12-09T08:47:20.692Z,100266.03
2022-12-09T08:49:23.365Z,100260.28
2022-12-09T08:51:25.553Z,100262.59
2022-12-09T08:53:27.709Z,100267.09
2022-12-09T08:55:29.977Z,100258.00
2022-12-09T08:57:32.079Z,100262.81
2022-12-09T08:59:34.185Z,100259.78
2022-12-09T09:01:36.564Z,100265.41
2022-12-09T09:03:38.701Z,100250.56
2022-12-09T09:05:41.326Z,100254.75
2022-12-09T09:07:43.843Z,100249.09
2022-12-09T09:09:46.189Z,100247.38
2022-12-09T09:11:48.801Z,100272.31
2022-12-09T09:13:51.765Z,100269.38
2022-12-09T09:15:54.180Z,100262.47
2022-12-09T09:17:56.065Z,100243.75
2022-12-09T09:19:58.423Z,100258.94
2022-12-09T09:22:00.792Z,100261.75
2022-12-09T09:24:07.880Z,100254.41
2022-12-09T09:26:15.346Z,100247.41
2022-12-09T09:28:17.495Z,100261.34
2022-12-09T09:30:19.746Z,100258.28
2022-12-09T09:32:22.181Z,100246.44
2022-12-09T09:34:27.235Z,100255.00
2022-12-09T09:36:30.224Z,100246.44
2022-12-09T09:38:32.573Z,100249.91
2022-12-09T09:40:34.633Z,100259.34
2022-12-09T09:42:43.952Z,100250.44
2022-12-09T09:44:52.155Z,100251.47
2022-12-09T09:46:56.488Z,100263.13
2022-12-09T09:49:00.718Z,100260.38
2022-12-09T09:51:19.210Z,100263.13
2022-12-09T09:53:25.392Z,100265.41
2022-12-09T09:55:43.884Z,100263.44
2022-12-09T09:58:06.595Z,100262.78
2022-12-09T10:00:32.505Z,100247.63
2022-12-09T10:02:37.559Z,100264.75
2022-12-09T10:04:47.861Z,100269.78
2022-12-09T10:07:10.659Z,100265.63
2022-12-09T10:09:59.952Z,100264.47
2022-12-09T10:12:22.547Z,100245.31
2022-12-09T10:14:46.044Z,100263.84
2022-12-09T10:17:04.617Z,100261.44
2022-12-09T10:19:18.020Z,100263.13
2022-12-09T10:21:21.705Z,100261.31
2022-12-09T10:23:24.389Z,100266.44
2022-12-09T10:25:30.099Z,100260.34
2022-12-09T10:27:45.930Z,100248.78
2022-12-09T10:30:31.583Z,100252.22
2022-12-09T10:32:39.289Z,100257.03
2022-12-09T10:34:41.719Z,100207.38
2022-12-09T10:36:46.100Z,100248.41
2022-12-09T10:38:48.781Z,100187.22
2022-12-09T10:40:59.210Z,100256.25
2022-12-09T10:43:22.823Z,100244.66
2022-12-09T10:45:29.294Z,100251.09
2022-12-09T10:47:50.669Z,100252.63
2022-12-09T10:49:55.376Z,100260.72
2022-12-09T10:51:58.710Z,100257.06
2022-12-09T10:54:21.877Z,100266.34
2022-12-09T10:56:27.663Z,100255.31
2022-12-09T10:58:32.569Z,100258.69
2022-12-09T11:00:35.143Z,100258.59
2022-12-09T11:02:49.174Z,100222.56
2022-12-09T11:04:51.557Z,100269.38
2022-12-09T11:06:59.674Z,100269.66
2022-12-09T11:09:03.257Z,100271.69
2022-12-09T11:11:06.100Z,100242.78
2022-12-09T11:13:09.026Z,100264.88
2022-12-09T11:15:38.939Z,100260.22
2022-12-09T11:17:56.814Z,100254.94
2022-12-09T11:20:04.933Z,100254.94
2022-12-09T11:22:27.407Z,100254.75
2022-12-09T11:24:30.168Z,100262.91
2022-12-09T11:26:36.628Z,100242.78
2022-12-09T11:28:41.107Z,100262.34
2022-12-09T11:31:33.479Z,100253.22
2022-12-09T11:33:40.921Z,100241.84
2022-12-09T11:35:45.872Z,100260.69
2022-12-09T11:37:48.422Z,100261.97
2022-12-09T11:39:51.403Z,100258.69
2022-12-09T11:41:59.715Z,100245.09
2022-12-09T11:44:02.113Z,100257.84
2022-12-09T11:46:32.257Z,100258.00
2022-12-09T11:48:40.202Z,100259.31
2022-12-09T11:50:49.504Z,100246.38
2022-12-09T11:53:13.097Z,100261.84
2022-12-09T11:55:24.282Z,100243.06
2022-12-09T11:57:47.027Z,100250.38
2022-12-09T11:59:56.457Z,100245.25
2022-12-09T12:02:18.927Z,100247.38
2022-12-09T12:04:30.970Z,100246.41
2022-12-09T12:06:49.309Z,100234.00
2022-12-09T12:09:28.448Z,100235.31
2022-12-09T12:11:40.838Z,100214.19
2022-12-09T12:13:46.222Z,100233.22
2022-12-09T12:16:21.896Z,100238.09
2022-12-09T12:18:32.945Z,100224.91
2022-12-09T12:21:09.993Z,100229.63
2022-12-09T12:23:32.501Z,100228.75
2022-12-09T12:26:06.558Z,100228.69
2022-12-09T12:28:23.340Z,100240.16
2022-12-09T12:30:33.715Z,100218.19
2022-12-09T12:32:41.547Z,100224.50
2022-12-09T12:35:14.072Z,100225.59
2022-12-09T12:37:30.277Z,100241.16
2022-12-09T12:39:53.319Z,100234.94
2022-12-09T12:41:57.817Z,100229.84
2022-12-09T12:44:22.826Z,100235.94
2022-12-09T12:46:30.620Z,100233.00
2022-12-09T12:48:55.487Z,100223.09
2022-12-09T12:51:31.417Z,100220.19
2022-12-09T12:53:46.816Z,100243.06
2022-12-09T12:56:14.930Z,100244.53
2022-12-09T12:58:46.717Z,100246.25
2022-12-09T13:01:00.183Z,100248.16
2022-12-09T13:03:26.184Z,100248.38
2022-12-09T13:05:34.764Z,100234.06
2022-12-09T13:07:39.550Z,100260.97
2022-12-09T13:09:46.230Z,100257.53
2022-12-09T13:12:10.246Z,100248.09
2022-12-09T13:14:19.256Z,100254.50
2022-12-09T13:16:36.728Z,100254.00
2022-12-09T13:18:40.398Z,100244.81
2022-12-09T13:20:52.962Z,100243.44
2022-12-09T13:23:03.126Z,100239.47
2022-12-09T13:25:23.002Z,100243.22
2022-12-09T13:27:39.880Z,100247.94
2022-12-09T13:29:55.065Z,100247.84
2022-12-09T13:32:04.279Z,100243.84
2022-12-09T13:34:36.523Z,100254.72
2022-12-09T13:36:40.973Z,100252.94
2022-12-09T13:38:43.705Z,100224.16
2022-12-09T13:40:45.459Z,100226.69
2022-12-09T13:42:48.773Z,100232.25
2022-12-09T13:44:50.745Z,100253.69
2022-12-09T13:46:52.535Z,100250.66
2022-12-09T13:48:55.128Z,100227.63
2022-12-09T13:50:59.107Z,100255.13
2022-12-09T13:53:25.614Z,100249.91
2022-12-09T13:55:38.951Z,100241.56
2022-12-09T13:57:51.109Z,100248.88
2022-12-09T13:59:56.206Z,100236.75
2022-12-09T14:02:10.477Z,100250.66
2022-12-09T14:04:17.264Z,100260.78
2022-12-09T14:06:33.594Z,100257.44
2022-12-09T14:08:45.576Z,100254.28
2022-12-09T14:10:49.097Z,100257.72
2022-12-09T14:12:50.758Z,100262.34
2022-12-09T14:15:00.501Z,100262.56
2022-12-09T14:17:17.979Z,100257.25
2022-12-09T14:19:25.398Z,100264.75
2022-12-09T14:21:30.055Z,100259.00
2022-12-09T14:23:32.048Z,100259.38
2022-12-09T14:25:33.698Z,100257.84
2022-12-09T14:27:35.417Z,100260.72
2022-12-09T14:29:47.899Z,100252.22
2022-12-09T14:32:01.134Z,100258.19
2022-12-09T14:34:17.621Z,100260.81
2022-12-09T14:36:19.519Z,100264.28
2022-12-09T14:39:07.802Z,100256.53
2022-12-09T14:41:20.669Z,100256.13
2022-12-09T14:43:57.149Z,100257.00
2022-12-09T14:46:21.908Z,100250.00
2022-12-09T14:48:33.185Z,100253.00
2022-12-09T14:50:35.071Z,100234.28
2022-12-09T14:52:36.912Z,100243.94
2022-12-09T14:54:47.742Z,100233.88
2022-12-09T14:56:52.554Z,100239.59
2022-12-09T14:59:16.904Z,100246.00
2022-12-09T15:01:18.539Z,100237.72
2022-12-09T15:03:33.190Z,100219.19
2022-12-09T15:05:38.389Z,100239.81
2022-12-09T15:07:44.513Z,100236.47
2022-12-09T15:09:56.198Z,100239.34
2022-12-09T15:11:58.815Z,100222.69
2022-12-09T15:14:03.693Z,100228.94
2022-12-09T15:16:16.282Z,100226.03
2022-12-09T15:18:22.087Z,100230.47
2022-12-09T15:20:33.481Z,100231.72
2022-12-09T15:22:36.275Z,100240.00
2022-12-09T15:24:49.666Z,100227.91
2022-12-09T15:27:01.241Z,100244.81
2022-12-09T15:29:03.254Z,100240.16
2022-12-09T15:31:07.884Z,100228.44
2022-12-09T15:33:18.753Z,100227.47
2022-12-09T15:35:23.308Z,100237.53
2022-12-09T15:37:28.535Z,100239.56
2022-12-09T15:39:38.864Z,100214.16
2022-12-09T15:41:44.197Z,100236.03
2022-12-09T15:43:52.083Z,100239.69
2022-12-09T15:45:57.811Z,100229.81
2022-12-09T15:48:14.242Z,100221.63
2022-12-09T15:50:29.583Z,100202.66
2022-12-09T15:52:37.806Z,100222.81
2022-12-09T15:54:43.057Z,100196.38
2022-12-09T15:56:49.977Z,100213.19
2022-12-09T15:58:55.115Z,100219.00
2022-12-09T16:00:57.876Z,100203.59
2022-12-09T16:02:59.818Z,100213.28
2022-12-09T16:05:07.497Z,100219.38
2022-12-09T16:07:11.017Z,100215.59
2022-12-09T16:09:15.047Z,100214.03
2022-12-09T16:11:41.357Z,100205.94
2022-12-09T16:14:00.464Z,100209.16
2022-12-09T16:16:24.503Z,100194.06
2022-12-09T16:18:32.355Z,100208.00
2022-12-09T16:20:39.185Z,100206.03
2022-12-09T16:22:43.280Z,100209.75
2022-12-09T16:27:17.042Z,100204.56
2022-12-09T16:29:26.506Z,100196.50
2022-12-09T16:31:29.390Z,100195.09
2022-12-09T16:33:36.827Z,100197.63
2022-12-09T16:35:41.983Z,100204.00
2022-12-09T16:38:03.610Z,100193.59
2022-12-09T16:40:23.472Z,100197.66
2022-12-09T16:42:30.878Z,100206.38
2022-12-09T16:44:37.184Z,100206.94
2022-12-09T16:46:41.259Z,100138.63
2022-12-09T16:48:43.166Z,100200.19
2022-12-09T16:50:48.624Z,100219.69
2022-12-09T16:52:50.545Z,100221.41
2022-12-09T16:54:52.376Z,100227.03
2022-12-09T16:56:56.212Z,100215.25
2022-12-09T16:58:58.735Z,100219.25
2022-12-09T17:01:03.062Z,100208.72
2022-12-09T17:03:15.677Z,100220.88
2022-12-09T17:05:17.451Z,100217.16
2022-12-09T17:07:19.345Z,100218.31
2022-12-09T17:09:21.240Z,100221.75
2022-12-09T17:11:23.347Z,100224.09
2022-12-09T17:13:25.201Z,100178.50
2022-12-09T17:15:26.893Z,100188.75
2022-12-09T17:17:28.760Z,100219.53
2022-12-09T17:19:30.590Z,100221.31
2022-12-09T17:21:32.529Z,100225.25
2022-12-09T17:23:39.441Z,100222.00
2022-12-09T17:25:41.834Z,100203.41
2022-12-09T17:27:43.526Z,100220.66
2022-12-09T17:29:45.299Z,100221.63
2022-12-09T17:31:47.142Z,100216.72
2022-12-09T17:33:49.114Z,100208.00
2022-12-09T17:35:51.179Z,100222.81
2022-12-09T17:37:53.168Z,100223.41
2022-12-09T17:40:01.619Z,100221.97
2022-12-09T17:42:05.182Z,100188.84
2022-12-09T17:44:07.011Z,100207.41
2022-12-09T17:46:11.077Z,100207.97
2022-12-09T17:48:13.005Z,100207.13
2022-12-09T17:50:14.750Z,100210.28
2022-12-09T17:52:16.478Z,100198.47
2022-12-09T17:54:18.203Z,100218.13
2022-12-09T17:56:22.274Z,100222.81
2022-12-09T17:58:23.950Z,100217.78
2022-12-09T18:00:25.800Z,100216.03
2022-12-09T18:02:27.710Z,100217.69
2022-12-09T18:04:29.414Z,100209.50
2022-12-09T18:06:32.146Z,100193.50
2022-12-09T18:08:33.917Z,100216.94
2022-12-09T18:10:35.676Z,100216.75
2022-12-09T18:12:37.503Z,100216.91
2022-12-09T18:14:39.328Z,100194.59
2022-12-09T18:16:41.584Z,100208.56
2022-12-09T18:18:43.816Z,100203.84
2022-12-09T18:20:45.836Z,100180.09
2022-12-09T18:22:47.607Z,100199.47
2022-12-09T18:24:49.400Z,100191.13
2022-12-09T18:26:51.210Z,100200.31
2022-12-09T18:28:57.299Z,100196.19
2022-12-09T18:30:59.063Z,100196.09
2022-12-09T18:33:00.945Z,100201.75
2022-12-09T18:35:02.672Z,100184.59
2022-12-09T18:37:04.548Z,100193.00
2022-12-09T18:39:06.792Z,100181.81
2022-12-09T18:41:29.953Z,100191.41
2022-12-09T18:43:34.604Z,100205.13
2022-12-09T18:45:36.408Z,100198.31
2022-12-09T18:47:38.080Z,100202.84
2022-12-09T18:49:39.895Z,100194.22
2022-12-09T18:51:43.642Z,100203.34
2022-12-09T18:53:45.783Z,100208.44
2022-12-09T18:55:47.486Z,100203.34
2022-12-09T18:57:49.186Z,100203.19
2022-12-09T18:59:52.606Z,100180.59
2022-12-09T19:01:54.600Z,100213.47
2022-12-09T19:03:59.250Z,100209.56
2022-12-09T19:06:00.921Z,100195.06
2022-12-09T19:08:02.822Z,100200.84
2022-12-09T19:10:05.269Z,100186.88
2022-12-09T19:12:44.922Z,100203.16
2022-12-09T19:14:29.825Z,100181.00
2022-12-09T19:16:32.138Z,100207.41
2022-12-09T19:18:33.831Z,100207.31
2022-12-09T19:20:35.514Z,100215.88
2022-12-09T19:22:37.299Z,100184.72
2022-12-09T19:24:42.956Z,100195.31
2022-12-09T19:26:45.841Z,100206.78
2022-12-09T19:28:54.364Z,100196.53
2022-12-09T19:30:56.087Z,100203.75
2022-12-09T19:32:57.956Z,100199.72
2022-12-09T19:34:59.982Z,100196.88
2022-12-09T19:37:01.959Z,100193.16
2022-12-09T19:39:06.491Z,100198.72
2022-12-09T19:41:08.451Z,100185.75
2022-12-09T19:43:10.135Z,100193.19
2022-12-09T19:45:14.222Z,100180.28
2022-12-09T19:47:16.115Z,100191.56
2022-12-09T19:49:20.846Z,100164.72
2022-12-09T19:51:23.698Z,100190.28
2022-12-09T19:53:25.460Z,100204.56
2022-12-09T19:55:27.146Z,100201.31
2022-12-09T19:57:28.982Z,100194.06
2022-12-09T19:59:30.828Z,100179.44
2022-12-09T20:01:38.596Z,100191.88
2022-12-09T20:03:42.834Z,100190.38
2022-12-09T20:05:55.407Z,100195.94
2022-12-09T20:07:57.129Z,100204.78
2022-12-09T20:09:58.845Z,100193.41
2022-12-09T20:12:00.775Z,100204.69
2022-12-09T20:14:06.643Z,100193.06
2022-12-09T20:16:10.669Z,100165.47
2022-12-09T20:18:12.376Z,100194.81
2022-12-09T20:20:14.063Z,100174.44
2022-12-09T20:22:15.845Z,100196.97
2022-12-09T20:24:17.522Z,100199.81
2022-12-09T20:26:22.250Z,100177.47
2022-12-09T20:28:23.986Z,100187.22
2022-12-09T20:30:25.774Z,100181.19
2022-12-09T20:32:29.890Z,100174.91
2022-12-09T20:34:31.632Z,100195.75
2022-12-09T20:36:35.669Z,100169.63
2022-12-09T20:38:38.246Z,100198.06
2022-12-09T20:40:40.960Z,100151.63
2022-12-09T20:42:42.762Z,100185.59
2022-12-09T20:44:45.631Z,100170.72
2022-12-09T20:46:52.905Z,100175.72
2022-12-09T20:48:55.641Z,100170.25
2022-12-09T20:50:57.310Z,100183.09
2022-12-09T20:52:59.146Z,100175.28
2022-12-09T20:55:00.864Z,100185.56
2022-12-09T20:57:02.624Z,100174.22
2022-12-09T20:59:05.045Z,100167.91
2022-12-09T21:01:13.540Z,100188.28
2022-12-09T21:03:15.318Z,100183.66
2022-12-09T21:05:17.211Z,100188.88
2022-12-09T21:07:18.895Z,100190.47
2022-12-09T21:09:21.382Z,100169.66
2022-12-09T21:11:25.320Z,100178.56
2022-12-09T21:13:27.003Z,100167.72
2022-12-09T21:15:29.989Z,100143.50
2022-12-09T21:17:31.714Z,100179.19
2022-12-09T21:19:33.441Z,100164.59
2022-12-09T21:21:37.334Z,100165.94
2022-12-09T21:23:39.286Z,100163.03
2022-12-09T21:25:41.104Z,100167.88
2022-12-09T21:27:42.845Z,100168.06
2022-12-09T21:29:44.581Z,100157.63
2022-12-09T21:31:46.725Z,100161.31
2022-12-09T21:33:49.911Z,100160.50
2022-12-09T21:35:51.582Z,100164.03
2022-12-09T21:37:56.212Z,100138.84
2022-12-09T21:39:58.292Z,100146.50
2022-12-09T21:41:59.989Z,100159.38
2022-12-09T21:44:01.893Z,100157.72
2022-12-09T21:46:08.944Z,100137.59
2022-12-09T21:48:10.985Z,100154.25
2022-12-09T21:50:12.698Z,100147.59
2022-12-09T21:52:14.482Z,100130.84
2022-12-09T21:54:16.160Z,100130.59
2022-12-09T21:56:26.311Z,100160.91
2022-12-09T21:58:30.541Z,100151.72
2022-12-09T22:00:32.229Z,100156.53
2022-12-09T22:02:34.041Z,100154.06
2022-12-09T22:04:35.754Z,100158.63
2022-12-09T22:06:38.235Z,100164.28
2022-12-09T22:08:41.128Z,100142.13
2022-12-09T22:10:42.991Z,100162.13
2022-12-09T22:12:44.894Z,100157.53
2022-12-09T22:14:46.595Z,100152.72
2022-12-09T22:16:48.377Z,100162.16
2022-12-09T22:18:53.337Z,100158.63
2022-12-09T22:21:23.599Z,100148.38
2022-12-09T22:23:16.892Z,100153.31
2022-12-09T22:25:18.630Z,100153.22
2022-12-09T22:27:20.491Z,100153.00
2022-12-09T22:29:22.170Z,100145.06
2022-12-09T22:31:31.053Z,100145.31
2022-12-09T22:33:32.898Z,100135.88
2022-12-09T22:35:34.581Z,100122.91
2022-12-09T22:37:43.643Z,100147.03
2022-12-09T22:39:45.926Z,100139.41
2022-12-09T22:41:47.932Z,100133.94
2022-12-09T22:43:50.775Z,100125.28
2022-12-09T22:45:52.608Z,100135.31
2022-12-09T22:47:55.306Z,100136.28
2022-12-09T22:49:57.053Z,100128.88
2022-12-09T22:52:00.652Z,100118.63
2022-12-09T22:54:05.290Z,100134.22
2022-12-09T22:56:07.897Z,100131.16
2022-12-09T22:58:09.718Z,100113.50
2022-12-09T23:00:12.065Z,100114.75
2022-12-09T23:02:13.820Z,100125.22
2022-12-09T23:04:18.912Z,100135.34
2022-12-09T23:06:20.689Z,100133.69
2022-12-09T23:08:22.484Z,100132.38
2022-12-09T23:10:24.534Z,100129.81
2022-12-09T23:12:26.270Z,100135.78
2022-12-09T23:14:28.052Z,100130.47
2022-12-09T23:16:29.996Z,100132.38
2022-12-09T23:18:33.128Z,100127.25
2022-12-09T23:20:34.850Z,100127.78
2022-12-09T23:22:36.881Z,100114.16
2022-12-09T23:24:38.675Z,100118.03
2022-12-09T23:26:42.222Z,100130.16
2022-12-09T23:28:49.531Z,100126.94
2022-12-09T23:30:51.290Z,100115.41
2022-12-09T23:32:53.045Z,100131.31
2022-12-09T23:34:54.902Z,100131.59
2022-12-09T23:36:56.589Z,100137.25
2022-12-09T23:38:59.949Z,100132.44
2022-12-09T23:41:02.243Z,100137.38
2022-12-09T23:43:03.933Z,100133.09
2022-12-09T23:45:06.188Z,100102.13
2022-12-09T23:47:07.996Z,100123.56
2022-12-09T23:49:10.078Z,100119.50
2022-12-09T23:51:22.294Z,100124.94
2022-12-09T23:53:24.149Z,100112.38
2022-12-09T23:55:25.909Z,100106.22
2022-12-09T23:57:27.610Z,100117.94
2022-12-09T23:59:29.305Z,100108.00
